sensor_id;sensor_type;location;lat;lon;timestamp;temperature;humidity
28546;DHT22;15749;49.606;8.738;2024-02-26T00:07:28;15.20;1.00
28546;DHT22;15749;49.606;8.738;2024-02-26T00:09:58;15.40;1.00
28546;DHT22;15749;49.606;8.738;2024-02-26T00:12:27;15.50;1.00
28546;DHT22;15749;49.606;8.738;2024-02-26T00:14:56;15.50;1.00
28546;DHT22;15749;49.606;8.738;2024-02-26T00:17:26;15.60;1.00
28546;DHT22;15749;49.606;8.738;2024-02-26T00:19:55;15.60;1.00
28546;DHT22;15749;49.606;8.738;2024-02-26T00:22:24;15.50;1.00
28546;DHT22;15749;49.606;8.738;2024-02-26T00:24:54;15.60;1.00
28546;DHT22;15749;49.606;8.738;2024-02-26T00:27:23;15.50;1.00
28546;DHT22;15749;49.606;8.738;2024-02-26T00:29:52;15.50;1.00
28546;DHT22;15749;49.606;8.738;2024-02-26T00:32:22;15.40;1.00
28546;DHT22;15749;49.606;8.738;2024-02-26T00:34:51;15.40;1.00
28546;DHT22;15749;49.606;8.738;2024-02-26T00:37:20;15.40;1.00
28546;DHT22;15749;49.606;8.738;2024-02-26T00:39:49;15.30;1.00
28546;DHT22;15749;49.606;8.738;2024-02-26T00:42:19;15.30;1.00
28546;DHT22;15749;49.606;8.738;2024-02-26T00:44:48;15.30;1.00
28546;DHT22;15749;49.606;8.738;2024-02-26T00:47:17;15.20;1.00
28546;DHT22;15749;49.606;8.738;2024-02-26T05:08:36;15.80;1.00
28546;DHT22;15749;49.606;8.738;2024-02-26T05:11:06;15.70;1.00
28546;DHT22;15749;49.606;8.738;2024-02-26T05:13:35;15.70;1.00
28546;DHT22;15749;49.606;8.738;2024-02-26T05:30:07;15.60;1.00
28546;DHT22;15749;49.606;8.738;2024-02-26T05:32:36;15.10;1.00
28546;DHT22;15749;49.606;8.738;2024-02-26T05:35:06;15.20;1.00
28546;DHT22;15749;49.606;8.738;2024-02-26T05:37:36;15.30;1.00
28546;DHT22;15749;49.606;8.738;2024-02-26T05:40:06;15.30;1.00
28546;DHT22;15749;49.606;8.738;2024-02-26T05:42:35;15.40;1.00
28546;DHT22;15749;49.606;8.738;2024-02-26T05:45:07;15.40;1.00
28546;DHT22;15749;49.606;8.738;2024-02-26T05:47:36;15.40;1.00
28546;DHT22;15749;49.606;8.738;2024-02-26T05:50:10;15.30;1.00
28546;DHT22;15749;49.606;8.738;2024-02-26T05:52:41;15.30;1.00
28546;DHT22;15749;49.606;8.738;2024-02-26T05:55:10;15.30;1.00
28546;DHT22;15749;49.606;8.738;2024-02-26T05:57:39;15.20;1.00
28546;DHT22;15749;49.606;8.738;2024-02-26T06:00:11;15.20;1.00
28546;DHT22;15749;49.606;8.738;2024-02-26T06:02:42;15.20;1.00
28546;DHT22;15749;49.606;8.738;2024-02-26T06:05:11;15.10;1.00
28546;DHT22;15749;49.606;8.738;2024-02-26T06:07:40;15.10;1.00
28546;DHT22;15749;49.606;8.738;2024-02-26T06:10:10;15.00;1.00
28546;DHT22;15749;49.606;8.738;2024-02-26T06:12:41;15.00;1.00
28546;DHT22;15749;49.606;8.738;2024-02-26T06:15:12;15.00;1.00
28546;DHT22;15749;49.606;8.738;2024-02-26T06:17:41;14.90;1.00
28546;DHT22;15749;49.606;8.738;2024-02-26T06:20:11;14.90;1.00
28546;DHT22;15749;49.606;8.738;2024-02-26T06:22:41;14.90;1.00
28546;DHT22;15749;49.606;8.738;2024-02-26T06:25:10;14.80;1.00
28546;DHT22;15749;49.606;8.738;2024-02-26T06:27:39;14.80;1.00
28546;DHT22;15749;49.606;8.738;2024-02-26T06:30:11;14.80;1.00
28546;DHT22;15749;49.606;8.738;2024-02-26T06:32:40;14.80;1.00
28546;DHT22;15749;49.606;8.738;2024-02-26T06:35:09;14.70;1.00
28546;DHT22;15749;49.606;8.738;2024-02-26T06:37:39;14.70;1.00
28546;DHT22;15749;49.606;8.738;2024-02-26T06:40:09;14.70;1.00
28546;DHT22;15749;49.606;8.738;2024-02-26T06:42:38;14.70;1.00
28546;DHT22;15749;49.606;8.738;2024-02-26T06:45:07;14.70;1.00
28546;DHT22;15749;49.606;8.738;2024-02-26T06:47:38;14.60;1.00
28546;DHT22;15749;49.606;8.738;2024-02-26T06:50:08;14.60;1.00
28546;DHT22;15749;49.606;8.738;2024-02-26T06:52:37;14.60;1.00
28546;DHT22;15749;49.606;8.738;2024-02-26T06:55:07;14.60;1.00
28546;DHT22;15749;49.606;8.738;2024-02-26T06:57:36;14.60;1.00
28546;DHT22;15749;49.606;8.738;2024-02-26T07:00:06;14.60;1.00
28546;DHT22;15749;49.606;8.738;2024-02-26T07:02:35;14.60;1.00
28546;DHT22;15749;49.606;8.738;2024-02-26T07:05:08;14.50;1.00
28546;DHT22;15749;49.606;8.738;2024-02-26T07:07:37;14.50;1.00
28546;DHT22;15749;49.606;8.738;2024-02-26T07:10:07;14.50;1.00
28546;DHT22;15749;49.606;8.738;2024-02-26T07:12:36;14.50;1.00
28546;DHT22;15749;49.606;8.738;2024-02-26T07:15:06;14.50;1.00
28546;DHT22;15749;49.606;8.738;2024-02-26T07:17:36;14.50;1.00
28546;DHT22;15749;49.606;8.738;2024-02-26T07:20:06;14.50;1.00
28546;DHT22;15749;49.606;8.738;2024-02-26T07:22:38;14.50;1.00
28546;DHT22;15749;49.606;8.738;2024-02-26T07:25:08;14.50;1.00
28546;DHT22;15749;49.606;8.738;2024-02-26T07:27:40;14.50;1.00
28546;DHT22;15749;49.606;8.738;2024-02-26T07:30:10;14.50;1.00
28546;DHT22;15749;49.606;8.738;2024-02-26T07:32:40;14.50;1.00
28546;DHT22;15749;49.606;8.738;2024-02-26T07:35:09;14.50;1.00
28546;DHT22;15749;49.606;8.738;2024-02-26T07:37:39;14.40;1.00
28546;DHT22;15749;49.606;8.738;2024-02-26T07:40:09;14.40;1.00
28546;DHT22;15749;49.606;8.738;2024-02-26T07:42:38;14.40;1.00
28546;DHT22;15749;49.606;8.738;2024-02-26T07:45:08;14.40;1.00
28546;DHT22;15749;49.606;8.738;2024-02-26T07:47:37;14.40;1.00
28546;DHT22;15749;49.606;8.738;2024-02-26T07:50:09;14.40;1.00
28546;DHT22;15749;49.606;8.738;2024-02-26T07:52:41;14.40;1.00
28546;DHT22;15749;49.606;8.738;2024-02-26T07:55:10;14.40;1.00
28546;DHT22;15749;49.606;8.738;2024-02-26T07:57:42;14.40;1.00
28546;DHT22;15749;49.606;8.738;2024-02-26T08:00:12;14.40;1.00
28546;DHT22;15749;49.606;8.738;2024-02-26T08:02:44;14.40;1.00
28546;DHT22;15749;49.606;8.738;2024-02-26T08:05:14;14.40;1.00
28546;DHT22;15749;49.606;8.738;2024-02-26T08:07:45;14.40;1.00
28546;DHT22;15749;49.606;8.738;2024-02-26T08:10:14;14.40;1.00
28546;DHT22;15749;49.606;8.738;2024-02-26T08:12:43;14.40;1.00
28546;DHT22;15749;49.606;8.738;2024-02-26T08:15:14;14.40;1.00
28546;DHT22;15749;49.606;8.738;2024-02-26T08:17:43;14.40;1.00
28546;DHT22;15749;49.606;8.738;2024-02-26T08:20:12;14.40;1.00
28546;DHT22;15749;49.606;8.738;2024-02-26T08:22:41;14.40;1.00
28546;DHT22;15749;49.606;8.738;2024-02-26T08:25:12;14.40;1.00
28546;DHT22;15749;49.606;8.738;2024-02-26T08:27:41;14.40;1.00
28546;DHT22;15749;49.606;8.738;2024-02-26T08:30:11;14.40;1.00
28546;DHT22;15749;49.606;8.738;2024-02-26T08:32:41;14.40;1.00
28546;DHT22;15749;49.606;8.738;2024-02-26T08:35:10;14.40;1.00
28546;DHT22;15749;49.606;8.738;2024-02-26T08:37:39;14.40;1.00
28546;DHT22;15749;49.606;8.738;2024-02-26T08:40:09;14.40;1.00
28546;DHT22;15749;49.606;8.738;2024-02-26T08:42:40;14.40;1.00
28546;DHT22;15749;49.606;8.738;2024-02-26T08:45:09;14.40;1.00
28546;DHT22;15749;49.606;8.738;2024-02-26T08:47:39;14.40;1.00
28546;DHT22;15749;49.606;8.738;2024-02-26T08:50:09;14.40;1.00
28546;DHT22;15749;49.606;8.738;2024-02-26T08:52:39;14.40;1.00
28546;DHT22;15749;49.606;8.738;2024-02-26T08:55:09;14.40;1.00
28546;DHT22;15749;49.606;8.738;2024-02-26T08:57:39;14.50;1.00
28546;DHT22;15749;49.606;8.738;2024-02-26T09:00:09;14.40;1.00
28546;DHT22;15749;49.606;8.738;2024-02-26T09:02:39;14.40;1.00
28546;DHT22;15749;49.606;8.738;2024-02-26T09:05:08;14.50;1.00
28546;DHT22;15749;49.606;8.738;2024-02-26T09:07:37;14.50;1.00
28546;DHT22;15749;49.606;8.738;2024-02-26T09:10:07;14.50;1.00
28546;DHT22;15749;49.606;8.738;2024-02-26T09:12:40;14.50;1.00
28546;DHT22;15749;49.606;8.738;2024-02-26T09:15:09;14.50;1.00
28546;DHT22;15749;49.606;8.738;2024-02-26T09:17:39;14.50;1.00
28546;DHT22;15749;49.606;8.738;2024-02-26T09:20:09;14.50;1.00
28546;DHT22;15749;49.606;8.738;2024-02-26T09:22:38;14.50;1.00
28546;DHT22;15749;49.606;8.738;2024-02-26T09:25:07;14.50;1.00
28546;DHT22;15749;49.606;8.738;2024-02-26T09:27:36;14.50;1.00
28546;DHT22;15749;49.606;8.738;2024-02-26T09:30:12;14.50;1.00
28546;DHT22;15749;49.606;8.738;2024-02-26T09:32:46;14.50;1.00
28546;DHT22;15749;49.606;8.738;2024-02-26T09:35:16;14.50;1.00
28546;DHT22;15749;49.606;8.738;2024-02-26T09:37:45;14.60;1.00
28546;DHT22;15749;49.606;8.738;2024-02-26T09:40:14;14.60;1.00
28546;DHT22;15749;49.606;8.738;2024-02-26T09:42:44;14.60;1.00
28546;DHT22;15749;49.606;8.738;2024-02-26T09:45:19;14.60;1.00
28546;DHT22;15749;49.606;8.738;2024-02-26T09:47:50;14.60;1.00
28546;DHT22;15749;49.606;8.738;2024-02-26T09:50:21;14.60;1.00
28546;DHT22;15749;49.606;8.738;2024-02-26T09:52:52;14.60;1.00
28546;DHT22;15749;49.606;8.738;2024-02-26T09:55:21;14.60;1.00
28546;DHT22;15749;49.606;8.738;2024-02-26T09:57:51;14.60;1.00
28546;DHT22;15749;49.606;8.738;2024-02-26T10:00:23;14.60;1.00
28546;DHT22;15749;49.606;8.738;2024-02-26T10:02:55;14.60;1.00
28546;DHT22;15749;49.606;8.738;2024-02-26T10:05:26;14.70;1.00
28546;DHT22;15749;49.606;8.738;2024-02-26T10:07:56;14.70;1.00
28546;DHT22;15749;49.606;8.738;2024-02-26T10:10:27;14.70;1.00
28546;DHT22;15749;49.606;8.738;2024-02-26T10:12:56;14.70;1.00
28546;DHT22;15749;49.606;8.738;2024-02-26T10:15:27;14.70;1.00
28546;DHT22;15749;49.606;8.738;2024-02-26T10:17:57;14.70;1.00
28546;DHT22;15749;49.606;8.738;2024-02-26T10:20:27;14.70;1.00
28546;DHT22;15749;49.606;8.738;2024-02-26T10:22:56;14.70;1.00
28546;DHT22;15749;49.606;8.738;2024-02-26T10:33:55;14.80;1.00
28546;DHT22;15749;49.606;8.738;2024-02-26T10:36:26;14.60;1.00
28546;DHT22;15749;49.606;8.738;2024-02-26T10:39:14;14.70;1.00
28546;DHT22;15749;49.606;8.738;2024-02-26T10:41:44;14.80;1.00
28546;DHT22;15749;49.606;8.738;2024-02-26T10:44:13;14.90;1.00
28546;DHT22;15749;49.606;8.738;2024-02-26T10:46:47;14.90;1.00
28546;DHT22;15749;49.606;8.738;2024-02-26T10:49:18;14.90;1.00
28546;DHT22;15749;49.606;8.738;2024-02-26T10:51:54;15.00;1.00
28546;DHT22;15749;49.606;8.738;2024-02-26T10:54:26;15.00;1.00
28546;DHT22;15749;49.606;8.738;2024-02-26T10:56:57;15.00;1.00
28546;DHT22;15749;49.606;8.738;2024-02-26T10:59:27;15.00;1.00
28546;DHT22;15749;49.606;8.738;2024-02-26T11:01:57;15.00;1.00
28546;DHT22;15749;49.606;8.738;2024-02-26T11:04:29;15.10;1.00
28546;DHT22;15749;49.606;8.738;2024-02-26T11:06:59;15.10;1.00
28546;DHT22;15749;49.606;8.738;2024-02-26T11:09:29;15.10;1.00
28546;DHT22;15749;49.606;8.738;2024-02-26T11:11:58;15.20;1.00
28546;DHT22;15749;49.606;8.738;2024-02-26T11:14:29;15.20;1.00
28546;DHT22;15749;49.606;8.738;2024-02-26T11:16:59;15.20;1.00
28546;DHT22;15749;49.606;8.738;2024-02-26T11:19:30;15.30;1.00
28546;DHT22;15749;49.606;8.738;2024-02-26T11:22:04;15.30;1.00
28546;DHT22;15749;49.606;8.738;2024-02-26T11:55:08;15.30;1.00
28546;DHT22;15749;49.606;8.738;2024-02-26T12:02:07;16.20;1.00
28546;DHT22;15749;49.606;8.738;2024-02-26T12:04:36;16.30;1.00
28546;DHT22;15749;49.606;8.738;2024-02-26T12:07:06;16.40;1.00
28546;DHT22;15749;49.606;8.738;2024-02-26T12:09:36;16.50;1.00
28546;DHT22;15749;49.606;8.738;2024-02-26T12:12:07;16.50;1.00
28546;DHT22;15749;49.606;8.738;2024-02-26T12:14:40;16.60;1.00
28546;DHT22;15749;49.606;8.738;2024-02-26T12:17:20;16.60;1.00
28546;DHT22;15749;49.606;8.738;2024-02-26T12:19:50;16.60;1.00
28546;DHT22;15749;49.606;8.738;2024-02-26T12:22:20;16.60;1.00
28546;DHT22;15749;49.606;8.738;2024-02-26T12:24:58;16.60;1.00
28546;DHT22;15749;49.606;8.738;2024-02-26T12:27:28;16.60;1.00
28546;DHT22;15749;49.606;8.738;2024-02-26T12:29:58;16.60;1.00
28546;DHT22;15749;49.606;8.738;2024-02-26T12:32:28;16.60;1.00
28546;DHT22;15749;49.606;8.738;2024-02-26T12:34:58;16.60;1.00
28546;DHT22;15749;49.606;8.738;2024-02-26T12:37:28;16.60;1.00
28546;DHT22;15749;49.606;8.738;2024-02-26T12:39:57;16.60;1.00
28546;DHT22;15749;49.606;8.738;2024-02-26T12:42:27;16.60;1.00
28546;DHT22;15749;49.606;8.738;2024-02-26T12:44:56;16.60;1.00
28546;DHT22;15749;49.606;8.738;2024-02-26T12:47:27;16.60;1.00
28546;DHT22;15749;49.606;8.738;2024-02-26T12:49:57;16.60;1.00
28546;DHT22;15749;49.606;8.738;2024-02-26T12:52:26;16.60;1.00
28546;DHT22;15749;49.606;8.738;2024-02-26T12:54:55;16.60;1.00
28546;DHT22;15749;49.606;8.738;2024-02-26T12:57:26;16.60;1.00
28546;DHT22;15749;49.606;8.738;2024-02-26T13:00:01;16.60;1.00
28546;DHT22;15749;49.606;8.738;2024-02-26T13:02:34;16.60;1.00
28546;DHT22;15749;49.606;8.738;2024-02-26T13:05:04;16.70;1.00
28546;DHT22;15749;49.606;8.738;2024-02-26T13:07:40;16.70;1.00
28546;DHT22;15749;49.606;8.738;2024-02-26T13:10:10;16.70;1.00
28546;DHT22;15749;49.606;8.738;2024-02-26T13:12:43;16.70;1.00
28546;DHT22;15749;49.606;8.738;2024-02-26T13:15:15;16.70;1.00
28546;DHT22;15749;49.606;8.738;2024-02-26T13:17:47;16.70;1.00
28546;DHT22;15749;49.606;8.738;2024-02-26T13:20:25;16.70;1.00
28546;DHT22;15749;49.606;8.738;2024-02-26T13:23:00;16.70;1.00
28546;DHT22;15749;49.606;8.738;2024-02-26T13:25:30;16.70;1.00
28546;DHT22;15749;49.606;8.738;2024-02-26T13:28:09;16.70;1.00
28546;DHT22;15749;49.606;8.738;2024-02-26T13:30:41;16.70;1.00
28546;DHT22;15749;49.606;8.738;2024-02-26T13:33:12;16.70;1.00
28546;DHT22;15749;49.606;8.738;2024-02-26T13:35:42;16.70;1.00
28546;DHT22;15749;49.606;8.738;2024-02-26T13:38:11;16.70;1.00
28546;DHT22;15749;49.606;8.738;2024-02-26T13:40:40;16.80;1.00
28546;DHT22;15749;49.606;8.738;2024-02-26T13:43:09;16.80;1.00
28546;DHT22;15749;49.606;8.738;2024-02-26T13:45:39;16.80;1.00
28546;DHT22;15749;49.606;8.738;2024-02-26T13:48:09;16.80;1.00
28546;DHT22;15749;49.606;8.738;2024-02-26T13:50:41;16.80;1.00
28546;DHT22;15749;49.606;8.738;2024-02-26T13:53:13;16.80;1.00
28546;DHT22;15749;49.606;8.738;2024-02-26T13:55:42;16.80;1.00
28546;DHT22;15749;49.606;8.738;2024-02-26T13:58:12;16.80;1.00
28546;DHT22;15749;49.606;8.738;2024-02-26T14:00:42;16.80;1.00
28546;DHT22;15749;49.606;8.738;2024-02-26T14:03:12;16.80;1.00
28546;DHT22;15749;49.606;8.738;2024-02-26T14:05:42;16.80;1.00
28546;DHT22;15749;49.606;8.738;2024-02-26T14:08:14;16.90;1.00
28546;DHT22;15749;49.606;8.738;2024-02-26T14:10:44;16.90;1.00
28546;DHT22;15749;49.606;8.738;2024-02-26T14:13:13;16.90;1.00
28546;DHT22;15749;49.606;8.738;2024-02-26T14:15:42;16.90;1.00
28546;DHT22;15749;49.606;8.738;2024-02-26T14:18:25;16.90;1.00
28546;DHT22;15749;49.606;8.738;2024-02-26T14:21:06;16.90;1.00
28546;DHT22;15749;49.606;8.738;2024-02-26T14:23:45;16.90;1.00
28546;DHT22;15749;49.606;8.738;2024-02-26T14:26:15;16.90;1.00
28546;DHT22;15749;49.606;8.738;2024-02-26T14:28:44;16.90;1.00
28546;DHT22;15749;49.606;8.738;2024-02-26T14:31:17;16.90;1.00
28546;DHT22;15749;49.606;8.738;2024-02-26T14:33:47;16.90;1.00
28546;DHT22;15749;49.606;8.738;2024-02-26T14:36:21;17.00;1.00
28546;DHT22;15749;49.606;8.738;2024-02-26T14:38:51;16.90;1.00
28546;DHT22;15749;49.606;8.738;2024-02-26T14:41:20;16.90;1.00
28546;DHT22;15749;49.606;8.738;2024-02-26T14:43:49;17.00;1.00
28546;DHT22;15749;49.606;8.738;2024-02-26T14:46:18;17.00;1.00
28546;DHT22;15749;49.606;8.738;2024-02-26T14:48:47;17.00;1.00
28546;DHT22;15749;49.606;8.738;2024-02-26T14:51:17;17.00;1.00
28546;DHT22;15749;49.606;8.738;2024-02-26T14:53:47;17.00;1.00
28546;DHT22;15749;49.606;8.738;2024-02-26T14:56:16;17.00;1.00
28546;DHT22;15749;49.606;8.738;2024-02-26T14:58:46;17.00;1.00
28546;DHT22;15749;49.606;8.738;2024-02-26T15:01:15;17.00;1.00
28546;DHT22;15749;49.606;8.738;2024-02-26T15:03:45;17.00;1.00
28546;DHT22;15749;49.606;8.738;2024-02-26T15:06:14;17.00;1.00
28546;DHT22;15749;49.606;8.738;2024-02-26T15:08:43;17.00;1.00
28546;DHT22;15749;49.606;8.738;2024-02-26T15:11:14;17.00;1.00
28546;DHT22;15749;49.606;8.738;2024-02-26T15:13:43;17.00;1.00
28546;DHT22;15749;49.606;8.738;2024-02-26T15:16:17;17.00;1.00
28546;DHT22;15749;49.606;8.738;2024-02-26T15:18:46;17.00;1.00
28546;DHT22;15749;49.606;8.738;2024-02-26T15:21:16;17.00;1.00
28546;DHT22;15749;49.606;8.738;2024-02-26T15:23:45;17.00;1.00
28546;DHT22;15749;49.606;8.738;2024-02-26T15:26:33;17.00;1.00
28546;DHT22;15749;49.606;8.738;2024-02-26T15:29:02;17.00;1.00
28546;DHT22;15749;49.606;8.738;2024-02-26T15:31:31;17.00;1.00
28546;DHT22;15749;49.606;8.738;2024-02-26T15:34:00;17.00;1.00
28546;DHT22;15749;49.606;8.738;2024-02-26T15:36:29;17.00;1.00
28546;DHT22;15749;49.606;8.738;2024-02-26T15:38:58;17.00;1.00
28546;DHT22;15749;49.606;8.738;2024-02-26T15:41:28;17.00;1.00
28546;DHT22;15749;49.606;8.738;2024-02-26T15:43:58;17.00;1.00
28546;DHT22;15749;49.606;8.738;2024-02-26T15:46:28;17.00;1.00
28546;DHT22;15749;49.606;8.738;2024-02-26T15:48:57;17.00;1.00
28546;DHT22;15749;49.606;8.738;2024-02-26T15:51:26;17.00;1.00
28546;DHT22;15749;49.606;8.738;2024-02-26T15:53:55;17.00;1.00
28546;DHT22;15749;49.606;8.738;2024-02-26T15:56:26;17.00;1.00
28546;DHT22;15749;49.606;8.738;2024-02-26T15:58:55;17.00;1.00
28546;DHT22;15749;49.606;8.738;2024-02-26T16:01:29;17.00;1.00
28546;DHT22;15749;49.606;8.738;2024-02-26T16:04:04;17.00;1.00
28546;DHT22;15749;49.606;8.738;2024-02-26T16:06:37;17.00;1.00
28546;DHT22;15749;49.606;8.738;2024-02-26T16:09:07;17.00;1.00
28546;DHT22;15749;49.606;8.738;2024-02-26T16:11:36;17.00;1.00
28546;DHT22;15749;49.606;8.738;2024-02-26T16:14:12;17.00;1.00
28546;DHT22;15749;49.606;8.738;2024-02-26T16:17:00;17.00;1.00
28546;DHT22;15749;49.606;8.738;2024-02-26T16:19:32;17.00;1.00
28546;DHT22;15749;49.606;8.738;2024-02-26T16:22:02;17.00;1.00
28546;DHT22;15749;49.606;8.738;2024-02-26T16:24:31;17.00;1.00
28546;DHT22;15749;49.606;8.738;2024-02-26T16:27:01;17.00;1.00
28546;DHT22;15749;49.606;8.738;2024-02-26T16:29:30;17.00;1.00
28546;DHT22;15749;49.606;8.738;2024-02-26T16:32:00;16.90;1.00
28546;DHT22;15749;49.606;8.738;2024-02-26T16:34:33;16.90;1.00
28546;DHT22;15749;49.606;8.738;2024-02-26T16:37:04;16.90;1.00
28546;DHT22;15749;49.606;8.738;2024-02-26T16:39:37;17.00;1.00
28546;DHT22;15749;49.606;8.738;2024-02-26T16:42:06;16.90;1.00
28546;DHT22;15749;49.606;8.738;2024-02-26T16:44:36;16.90;1.00
28546;DHT22;15749;49.606;8.738;2024-02-26T16:47:07;16.90;1.00
28546;DHT22;15749;49.606;8.738;2024-02-26T16:49:36;16.90;1.00
28546;DHT22;15749;49.606;8.738;2024-02-26T17:39:52;16.90;1.00
28546;DHT22;15749;49.606;8.738;2024-02-26T17:42:22;17.20;1.00
28546;DHT22;15749;49.606;8.738;2024-02-26T17:44:51;17.30;1.00
28546;DHT22;15749;49.606;8.738;2024-02-26T17:47:20;17.30;1.00
28546;DHT22;15749;49.606;8.738;2024-02-26T17:49:48;17.40;1.00
28546;DHT22;15749;49.606;8.738;2024-02-26T17:52:17;17.40;1.00
28546;DHT22;15749;49.606;8.738;2024-02-26T17:54:46;17.40;1.00
28546;DHT22;15749;49.606;8.738;2024-02-26T17:57:17;17.40;1.00
28546;DHT22;15749;49.606;8.738;2024-02-26T17:59:48;17.30;1.00
28546;DHT22;15749;49.606;8.738;2024-02-26T18:02:17;17.30;1.00
28546;DHT22;15749;49.606;8.738;2024-02-26T18:04:46;17.20;1.00
28546;DHT22;15749;49.606;8.738;2024-02-26T18:07:15;17.20;1.00
28546;DHT22;15749;49.606;8.738;2024-02-26T18:09:45;17.10;1.00
28546;DHT22;15749;49.606;8.738;2024-02-26T18:12:13;17.10;1.00
28546;DHT22;15749;49.606;8.738;2024-02-26T18:14:44;17.10;1.00
28546;DHT22;15749;49.606;8.738;2024-02-26T18:17:13;17.00;1.00
28546;DHT22;15749;49.606;8.738;2024-02-26T18:19:43;16.90;1.00
28546;DHT22;15749;49.606;8.738;2024-02-26T18:22:12;16.90;1.00
28546;DHT22;15749;49.606;8.738;2024-02-26T18:24:41;16.90;1.00
28546;DHT22;15749;49.606;8.738;2024-02-26T18:27:10;16.80;1.00
28546;DHT22;15749;49.606;8.738;2024-02-26T18:29:41;16.80;1.00
28546;DHT22;15749;49.606;8.738;2024-02-26T18:32:14;16.70;1.00
28546;DHT22;15749;49.606;8.738;2024-02-26T18:34:44;16.70;1.00
28546;DHT22;15749;49.606;8.738;2024-02-26T18:37:18;16.70;1.00
28546;DHT22;15749;49.606;8.738;2024-02-26T18:39:51;16.70;1.00
28546;DHT22;15749;49.606;8.738;2024-02-26T18:42:20;16.70;1.00
28546;DHT22;15749;49.606;8.738;2024-02-26T18:44:54;16.60;1.00
28546;DHT22;15749;49.606;8.738;2024-02-26T18:47:29;16.60;1.00
28546;DHT22;15749;49.606;8.738;2024-02-26T18:49:58;16.60;1.00
28546;DHT22;15749;49.606;8.738;2024-02-26T18:52:32;16.60;1.00
28546;DHT22;15749;49.606;8.738;2024-02-26T18:55:01;16.50;1.00
28546;DHT22;15749;49.606;8.738;2024-02-26T18:57:30;16.50;1.00
28546;DHT22;15749;49.606;8.738;2024-02-26T18:59:59;16.50;1.00
28546;DHT22;15749;49.606;8.738;2024-02-26T19:05:23;16.50;1.00
28546;DHT22;15749;49.606;8.738;2024-02-26T19:07:53;16.40;1.00
28546;DHT22;15749;49.606;8.738;2024-02-26T19:10:26;16.40;1.00
28546;DHT22;15749;49.606;8.738;2024-02-26T19:12:55;16.40;1.00
28546;DHT22;15749;49.606;8.738;2024-02-26T19:15:25;16.40;1.00
28546;DHT22;15749;49.606;8.738;2024-02-26T19:17:55;16.30;1.00
28546;DHT22;15749;49.606;8.738;2024-02-26T19:20:27;16.30;1.00
28546;DHT22;15749;49.606;8.738;2024-02-26T19:22:56;16.30;1.00
28546;DHT22;15749;49.606;8.738;2024-02-26T19:25:25;16.30;1.00
28546;DHT22;15749;49.606;8.738;2024-02-26T19:27:54;16.30;1.00
28546;DHT22;15749;49.606;8.738;2024-02-26T19:30:23;16.30;1.00
28546;DHT22;15749;49.606;8.738;2024-02-26T19:32:53;16.20;1.00
28546;DHT22;15749;49.606;8.738;2024-02-26T19:35:22;16.30;1.00
28546;DHT22;15749;49.606;8.738;2024-02-26T19:37:52;16.20;1.00
28546;DHT22;15749;49.606;8.738;2024-02-26T19:40:21;16.20;1.00
28546;DHT22;15749;49.606;8.738;2024-02-26T19:42:51;16.20;1.00
28546;DHT22;15749;49.606;8.738;2024-02-26T19:45:20;16.20;1.00
28546;DHT22;15749;49.606;8.738;2024-02-26T19:47:50;16.20;1.00
28546;DHT22;15749;49.606;8.738;2024-02-26T19:50:19;16.20;1.00
28546;DHT22;15749;49.606;8.738;2024-02-26T19:52:50;16.10;1.00
28546;DHT22;15749;49.606;8.738;2024-02-26T19:55:20;16.10;1.00
28546;DHT22;15749;49.606;8.738;2024-02-26T19:57:51;16.10;1.00
28546;DHT22;15749;49.606;8.738;2024-02-26T20:00:24;16.10;1.00
28546;DHT22;15749;49.606;8.738;2024-02-26T20:02:54;16.10;1.00
28546;DHT22;15749;49.606;8.738;2024-02-26T20:05:24;16.10;1.00
28546;DHT22;15749;49.606;8.738;2024-02-26T20:07:54;16.10;1.00
28546;DHT22;15749;49.606;8.738;2024-02-26T20:10:25;16.00;1.00
